Informes METAR proximidad

   
EHVK - Volkel Rnlafb, Netherlands
Distancia hasta la estación: SW 18 km
Actualización: 24-08-2019 21:25
Claros  
Claros  
   Viento: NE 1.9 km/h
Viento: NE 1.9 km/h
Temperatura: 18°C
Punto de rocio: 12°C
Humedad: 68%
Barometro: 1018 hPa
Nublado: Claros
Visibilidad: More than 10 km
detalles de la nube: Claros
EHVK 242125Z AUTO 04001KT 9999 NCD 18/12 Q1018 BLU
EDLV - Niederrhein, Germany
Distancia hasta la estación: SE 25 km
Actualización: 24-08-2019 21:20
Claros  
Claros  
   Viento: NNE 3.7 km/h
Viento: NNE 3.7 km/h
Temperatura: 19°C
Punto de rocio: 12°C
Humedad: 64%
Barometro: 1019 hPa
Visibilidad: More than 10 km
detalles de la nube: Claros
EDLV 242120Z 02002KT CAVOK 19/12 Q1019
EHDL - Deelen Rnlafb, Netherlands
Distancia hasta la estación: N 35 km
Actualización: 24-08-2019 21:25
Claros  
Claros  
   Viento: varía 3.7 km/h
Viento: varía 3.7 km/h
Temperatura: 16°C
Punto de rocio: 12°C
Humedad: 77%
Barometro: 1019 hPa
Nublado: Claros
Visibilidad: More than 10 km
detalles de la nube: Claros
EHDL 242125Z AUTO VRB02KT 9999 NCD 16/12 Q1019 BLU
EHEH - Eindhoven Rnlafb, Netherlands
Distancia hasta la estación: SW 48 km
Actualización: 24-08-2019 21:25
Claros  
Claros  
   Viento: North 3.7 km/h
Viento: North 3.7 km/h
Temperatura: 20°C
Punto de rocio: 13°C
Humedad: 64%
Barometro: 1018 hPa
Nublado: Claros
Visibilidad: More than 10 km
detalles de la nube: Claros
EHEH 242125Z AUTO 36002KT 9999 NCD 20/13 Q1018 BLU 07005KT CAVOK
EHGR - Gilze-Rijen Rnla, Netherlands
Distancia hasta la estación: WSW 70 km
Actualización: 24-08-2019 21:25
Claros  
Claros  
   Viento: East 1.9 km/h
Viento: East 1.9 km/h
Temperatura: 18°C
Punto de rocio: 13°C
Humedad: 73%
Barometro: 1018 hPa
Nublado: Claros
Visibilidad: More than 10 km
detalles de la nube: Claros
EHGR 242125Z AUTO 08001KT 9999 NCD 18/13 Q1018 BLU
EBBL - Kleine-Brogel(Ba, Belgium
Distancia hasta la estación: SSW 71 km
Actualización: 24-08-2019 21:25
Claros  
Claros  
   Viento: varía 1.9 km/h
Viento: varía 1.9 km/h
Temperatura: 17°C
Punto de rocio: 12°C
Humedad: 73%
Barometro: 1019 hPa
Nublado: Claros
Visibilidad: More than 10 km
detalles de la nube: Claros
EBBL 242125Z AUTO VRB01KT 9999 NCD 17/12 Q1019 BLU

Guión original por  Saratoga-weather.org Adaptado para la plantilla por  Weerstation Leuven